• Join FlightAware (Why Join?)
  • Login
  • US Flag 
08:40AM EST


 

Airport Tracker/Info


-or-


 

Live Flight TrackerFlight Track Log ✈ SWA543 ✈ 29-Mar-2014 ✈ KHOU - KPHX

Flight Track Log - Related Links

Times and Time Zones

All times are in EDT time to prevent confusion due to time zone crossing. See the SWA543 flight status page for this flight to view local times or setup timezone preferences in your user account.

Time Position Orientation Groundspeed Altitude Reporting Facility
EDT Latitude Longitude Course Direction KTS MPH feet Rate Location/Type
02:14PM 29.6564 -95.2672 329° Northwest 161 185 700  Level Houston Center
02:15PM 29.6947 -95.2939 329° Northwest 221 254 3,300 2,400 Climbing Houston Center
02:16PM 29.7281 -95.3597 300° West 266 306 5,700 1,860 Climbing Houston Center
02:16PM 29.7253 -95.3508 110° East 228 262 5,300 3,540 Descending Houston Center
02:17PM 29.7525 -95.4433 289° West 260 299 9,400 3,360 Climbing Houston Center
02:17PM 29.7525 -95.4317 90° East 266 306 8,800 1,260 Descending Houston Center
02:18PM 29.7700 -95.5122 284° West 264 304 10,800 2,280 Climbing Houston Center
02:19PM 29.7994 -95.6306 286° West 307 353 13,600 2,460 Climbing Houston Center
02:20PM 29.8228 -95.7308 285° West 321 369 16,000 2,400 Climbing Houston Center
02:21PM 29.8478 -95.8358 285° West 333 383 18,700 2,160 Climbing Houston Center
02:22PM 29.8744 -95.9436 286° West 342 394 20,600 1,860 Climbing Houston Center
02:23PM 29.9000 -96.0536 285° West 356 410 22,600 1,860 Climbing Houston Center
02:24PM 29.9328 -96.1906 285° West 369 425 24,500 1,740 Climbing Houston Center
02:25PM 29.9550 -96.3111 282° West 383 441 26,300 1,500 Climbing Houston Center
02:26PM 29.9828 -96.4319 285° West 386 444 27,700 1,500 Climbing Houston Center
02:27PM 30.0119 -96.5547 285° West 394 453 29,400 1,860 Climbing Houston Center
02:28PM 30.0386 -96.6739 285° West 391 450 31,600 2,040 Climbing Houston Center
02:29PM 30.0681 -96.8067 284° West 364 419 33,700 1,620 Climbing Houston Center
02:30PM 30.0933 -96.9186 285° West 363 418 35,000 1,020 Climbing Houston Center
02:31PM 30.1172 -97.0264 284° West 353 406 35,900 480 Climbing Houston Center
02:32PM 30.1419 -97.1353 285° West 352 405 36,000  Climbing Houston Center
02:33PM 30.1658 -97.2450 284° West 352 405 36,000  Level Houston Center
02:34PM 30.1950 -97.3783 284° West 354 407 36,000 -60 Level Houston Center
02:35PM 30.2181 -97.4869 284° West 353 406 35,900  Descending Houston Center
02:36PM 30.2439 -97.5958 285° West 354 407 36,000  Climbing Houston Center
02:37PM 30.2669 -97.7056 284° West 353 406 36,000  Level Houston Center
02:39PM 30.2906 -97.8153 284° West 353 406 36,000  Level Houston Center
02:40PM 30.3192 -97.9486 284° West 354 407 36,000  Level Houston Center
02:41PM 30.3422 -98.0581 284° West 354 407 36,000  Level Houston Center
02:42PM 30.3656 -98.1678 284° West 354 407 36,000  Level Houston Center
02:43PM 30.3903 -98.2789 284° West 354 407 36,000  Level Houston Center
02:44PM 30.4117 -98.3911 282° West 355 409 36,000  Level Houston Center
02:45PM 30.4406 -98.5206 285° West 357 411 36,000  Level Houston Center
02:46PM 30.4653 -98.6414 283° West 359 413 36,000  Level Houston Center
02:47PM 30.4889 -98.7528 284° West 358 412 36,000  Level Houston Center
02:48PM 30.5131 -98.8667 284° West 361 415 36,000  Level Houston Center
02:49PM 30.5364 -98.9800 283° West 362 417 36,000  Level Houston Center
02:50PM 30.5592 -99.0931 283° West 362 417 36,000  Level Houston Center
02:51PM 30.5831 -99.2058 284° West 362 417 36,000  Level Houston Center
02:52PM 30.6100 -99.3431 283° West 363 418 36,000  Level Houston Center
02:53PM 30.6328 -99.4575 283° West 365 420 36,000  Level Houston Center
02:54PM 30.6567 -99.5714 284° West 365 420 36,000  Level Houston Center
02:55PM 30.6794 -99.6844 283° West 365 420 36,000  Level Houston Center
02:56PM 30.7031 -99.7989 284° West 365 420 36,000  Level Houston Center
02:57PM 30.7292 -99.9342 283° West 364 419 36,000  Level Houston Center
02:58PM 30.7517 -100.0489 283° West 365 420 36,000  Level Houston Center
02:59PM 30.7736 -100.1642 283° West 365 420 36,000  Level Houston Center
03:00PM 30.7961 -100.2786 283° West 365 420 36,000 -60 Level Houston Center
03:01PM 30.8183 -100.3936 283° West 366 421 35,900 -60 Descending Houston Center
03:02PM 30.8458 -100.5319 283° West 366 421 35,900  Level Houston Center
03:03PM 30.8675 -100.6467 282° West 366 421 36,000  Climbing Houston Center
03:04PM 30.8889 -100.7614 282° West 366 421 36,000  Level Houston Center
03:05PM 30.9122 -100.8753 283° West 366 421 36,000  Level Houston Center
03:07PM 30.9336 -100.9897 282° West 365 420 36,000  Level Houston Center
03:08PM 30.9603 -101.1297 283° West 366 421 36,000  Level Houston Center
03:09PM 30.9825 -101.2456 283° West 367 422 36,000  Level Houston Center
03:10PM 31.0028 -101.3653 281° West 368 423 36,000  Level Houston Center
03:11PM 31.0247 -101.4831 282° West 368 423 36,000 -60 Level Houston Center
03:12PM 31.0469 -101.5994 283° West 368 423 35,900  Descending Houston Center
03:13PM 31.0675 -101.7175 282° West 369 425 36,000  Climbing Houston Center
03:14PM 31.0942 -101.8581 283° West 369 425 36,000  Level Houston Center
03:15PM 31.1158 -101.9769 282° West 370 426 36,000  Level Houston Center
03:16PM 31.1372 -102.0961 282° West 371 427 36,000  Level Houston Center
03:17PM 31.1533 -102.1914 281° West 378 435 36,000  Level Albuquerque Center
03:18PM 31.1756 -102.3111 282° West 377 434 36,000  Level Albuquerque Center
03:19PM 31.1992 -102.4542 281° West 377 434 36,000  Level Albuquerque Center
03:20PM 31.2183 -102.5608 282° West 377 434 36,000  Level Albuquerque Center
03:21PM 31.2394 -102.6794 282° West 377 434 36,000  Level Albuquerque Center
03:22PM 31.2647 -102.8239 282° West 377 434 36,000  Level Albuquerque Center
03:23PM 31.2844 -102.9431 281° West 377 434 36,000  Level Albuquerque Center
03:24PM 31.3058 -103.0633 282° West 377 434 36,000  Level Albuquerque Center
03:25PM 31.3264 -103.1844 281° West 377 434 36,000  Level Albuquerque Center
03:26PM 31.3461 -103.3031 281° West 377 434 36,000  Level Albuquerque Center
03:27PM 31.3661 -103.4242 281° West 377 434 36,000  Level Albuquerque Center
03:28PM 31.3858 -103.5453 281° West 377 434 36,000  Level Albuquerque Center
03:29PM 31.4108 -103.6892 282° West 377 434 36,000  Level Albuquerque Center
03:30PM 31.4283 -103.8011 280° West 377 434 36,000  Level Albuquerque Center
03:31PM 31.4511 -103.9228 282° West 380 437 36,000  Level Albuquerque Center
03:32PM 31.4694 -104.0447 280° West 380 437 36,000  Level Albuquerque Center
03:33PM 31.4933 -104.1914 281° West 381 438 36,000  Level Albuquerque Center
03:34PM 31.5136 -104.3142 281° West 382 440 36,000  Level Albuquerque Center
03:35PM 31.5333 -104.4361 281° West 383 441 36,000  Level Albuquerque Center
03:36PM 31.5528 -104.5586 281° West 383 441 36,000  Level Albuquerque Center
03:37PM 31.5728 -104.6817 281° West 383 441 36,000  Level Albuquerque Center
03:38PM 31.5931 -104.8042 281° West 383 441 36,000  Level Albuquerque Center
03:39PM 31.6153 -104.9508 280° West 384 442 36,000  Level Albuquerque Center
03:40PM 31.6350 -105.0736 281° West 384 442 36,000  Level Albuquerque Center
03:41PM 31.6544 -105.1956 281° West 384 442 36,000  Level Albuquerque Center
03:42PM 31.6722 -105.3186 280° West 384 442 36,000  Level Albuquerque Center
03:43PM 31.6900 -105.4431 280° West 388 447 36,000  Level Albuquerque Center
03:45PM 31.7097 -105.5653 281° West 385 443 36,000  Level Albuquerque Center
03:46PM 31.7308 -105.7133 280° West 385 443 36,000  Level Albuquerque Center
03:47PM 31.7500 -105.8364 280° West 385 443 36,000  Level Albuquerque Center
03:48PM 31.7683 -105.9594 280° West 385 443 36,000  Level Albuquerque Center
03:49PM 31.7864 -106.0828 280° West 385 443 36,000  Level Albuquerque Center
03:50PM 31.8053 -106.2061 280° West 385 443 36,000  Level Albuquerque Center
03:51PM 31.8219 -106.3308 279° West 385 443 36,000  Level Albuquerque Center
03:52PM 31.8303 -106.4556 275° West 385 443 36,000  Level Albuquerque Center
03:53PM 31.8394 -106.5925 275° West 385 443 36,000  Level Albuquerque Center
03:54PM 31.8494 -106.7181 275° West 385 443 36,000  Level Albuquerque Center
03:55PM 31.8586 -106.8433 275° West 385 443 36,000  Level Albuquerque Center
03:56PM 31.8694 -106.9944 275° West 385 443 36,000  Level Albuquerque Center
03:57PM 31.8783 -107.1211 275° West 386 444 36,000  Level Albuquerque Center
03:58PM 31.8878 -107.2489 275° West 387 445 36,000  Level Albuquerque Center
03:59PM 31.8950 -107.3764 274° West 388 447 36,000  Level Albuquerque Center
04:00PM 31.9039 -107.5039 275° West 388 447 36,000  Level Albuquerque Center
04:01PM 31.9117 -107.6314 274° West 388 447 36,000 -60 Level Albuquerque Center
04:02PM 31.9200 -107.7581 274° West 388 447 35,900  Descending Albuquerque Center
04:03PM 31.9475 -107.8844 284° West 392 451 36,000  Climbing Albuquerque Center
04:04PM 31.9831 -108.0344 286° West 394 453 36,000  Level Albuquerque Center
04:05PM 32.0119 -108.1586 285° West 394 453 36,000  Level Albuquerque Center
04:06PM 32.0414 -108.2833 286° West 394 453 36,000  Level Albuquerque Center
04:07PM 32.0706 -108.4089 285° West 394 453 36,000  Level Albuquerque Center
04:08PM 32.1031 -108.5436 286° West 394 453 36,000  Level Albuquerque Center
04:09PM 32.1322 -108.6686 285° West 394 453 36,000  Level Albuquerque Center
04:10PM 32.1606 -108.7931 285° West 394 453 36,000  Level Albuquerque Center
04:11PM 32.1892 -108.9186 285° West 394 453 36,000  Level Albuquerque Center
04:12PM 32.2183 -109.0439 285° West 394 453 36,000  Level Albuquerque Center
04:13PM 32.2469 -109.1703 285° West 394 453 36,000  Level Albuquerque Center
04:14PM 32.2758 -109.2956 285° West 394 453 36,000  Level Albuquerque Center
04:15PM 32.3133 -109.4461 286° West 395 455 36,000  Level Albuquerque Center
04:16PM 32.3433 -109.5736 286° West 396 456 36,000  Level Albuquerque Center
04:17PM 32.3750 -109.7003 287° West 397 457 36,000  Level Albuquerque Center
04:18PM 32.4044 -109.8264 285° West 398 458 36,000  Level Albuquerque Center
04:20PM 32.4378 -109.9592 287° West 413 475 36,000 -300 Level Albuquerque Center
04:21PM 32.4681 -110.0872 286° West 409 471 35,500 -1,980 Descending Albuquerque Center
04:22PM 32.5000 -110.2156 286° West 409 471 32,000 -3,420 Descending Albuquerque Center
04:23PM 32.5353 -110.3672 285° West 410 472 28,500 -3,000 Descending Albuquerque Center
04:24PM 32.5647 -110.4944 285° West 407 468 25,800 -2,220 Descending Albuquerque Center
04:25PM 32.5969 -110.6144 288° West 389 448 24,000 -900 Descending Albuquerque Center
04:26PM 32.6561 -110.7147 305° West 377 434 24,000  Level Albuquerque Center
04:27PM 32.7131 -110.8214 302° West 377 434 24,000  Level Albuquerque Center
04:28PM 32.7703 -110.9275 303° West 378 435 24,000 -1,200 Level Albuquerque Center
04:29PM 32.8358 -111.0542 302° West 379 436 21,600 -2,100 Descending Albuquerque Center
04:30PM 32.8878 -111.1547 302° West 364 419 19,700 -1,920 Descending Albuquerque Center
04:31PM 32.9322 -111.2506 299° West 337 388 17,700 -2,040 Descending Albuquerque Center
04:32PM 32.9758 -111.3447 299° West 328 377 15,600 -1,440 Descending Albuquerque Center
04:33PM 33.0183 -111.4358 299° West 318 366 14,800 -1,380 Descending Albuquerque Center
04:34PM 33.0614 -111.5183 302° West 299 344 12,800 -1,380 Descending Albuquerque Center
04:35PM 33.1036 -111.6028 301° West 299 344 12,000 -420 Descending Albuquerque Center
04:36PM 33.1461 -111.6861 301° West 297 342 12,000 -1,020 Level Albuquerque Center
04:37PM 33.1969 -111.7869 301° West 296 341 10,000 -1,200 Descending Albuquerque Center
04:38PM 33.2386 -111.8683 301° West 292 336 9,600 -540 Descending Albuquerque Center
04:39PM 33.2794 -111.9494 301° West 288 331 9,000 -900 Descending Albuquerque Center
04:40PM 33.3169 -112.0250 301° West 268 308 7,800 -1,080 Descending Albuquerque Center
04:41PM 33.3433 -112.1008 293° West 254 292 6,800 -1,080 Descending Albuquerque Center
04:42PM 33.3428 -112.1792 270° West 239 275 5,700 -1,200 Descending Albuquerque Center
04:43PM 33.3897 -112.2178 326° Northwest 228 262 4,400 -1,260 Descending Albuquerque Center
04:44PM 33.4272 -112.1669 49° Northeast 219 252 3,200 -1,080 Descending Albuquerque Center
04:45PM 33.4286 -112.1006 89° East 163 188 2,300 -840 Descending Albuquerque Center
04:46PM 33.4333 -112.0667 81° East 139 160 1,900 -780 Descending Phoenix TRACON